createdAt,value
2023-11-15T00:01:57.118Z,100.00
2023-11-15T00:04:23.769Z,100.00
2023-11-15T00:06:51.838Z,100.00
2023-11-15T00:09:18.593Z,100.00
2023-11-15T00:11:45.353Z,100.00
2023-11-15T00:14:12.105Z,100.00
2023-11-15T00:19:30.184Z,100.00
2023-11-15T00:21:58.238Z,100.00
2023-11-15T00:24:24.884Z,100.00
2023-11-15T00:26:51.592Z,100.00
2023-11-15T00:29:18.292Z,100.00
2023-11-15T00:31:44.929Z,100.00
2023-11-15T00:34:11.584Z,100.00
2023-11-15T00:36:38.647Z,100.00
2023-11-15T00:39:06.677Z,100.00
2023-11-15T00:44:23.791Z,100.00
2023-11-15T00:46:50.416Z,100.00
2023-11-15T00:49:17.003Z,100.00
2023-11-15T00:51:43.638Z,100.00
2023-11-15T00:54:11.606Z,100.00
2023-11-15T00:56:38.252Z,100.00
2023-11-15T00:59:05.000Z,100.00
2023-11-15T01:01:31.620Z,100.00
2023-11-15T01:03:58.301Z,100.00
2023-11-15T01:06:28.766Z,100.00
2023-11-15T01:08:55.578Z,100.00
2023-11-15T01:11:29.047Z,100.00
2023-11-15T01:13:55.879Z,100.00
2023-11-15T01:16:22.645Z,100.00
2023-11-15T01:18:49.445Z,100.00
2023-11-15T01:21:16.123Z,100.00
2023-11-15T01:26:35.207Z,100.00
2023-11-15T01:29:01.842Z,100.00
2023-11-15T01:31:28.441Z,100.00
2023-11-15T01:33:55.121Z,100.00
2023-11-15T01:36:21.742Z,100.00
2023-11-15T01:38:48.444Z,100.00
2023-11-15T01:41:15.182Z,100.00
2023-11-15T01:43:43.175Z,100.00
2023-11-15T01:46:10.028Z,100.00
2023-11-15T01:51:55.007Z,100.00
2023-11-15T01:54:23.784Z,100.00
2023-11-15T01:56:53.286Z,100.00
2023-11-15T01:59:21.893Z,99.56
2023-11-15T02:01:52.122Z,100.00
2023-11-15T02:04:18.752Z,100.00
2023-11-15T02:06:45.466Z,100.00
2023-11-15T02:09:12.139Z,100.00
2023-11-15T02:11:39.852Z,100.00
2023-11-15T02:14:06.549Z,100.00
2023-11-15T02:16:34.653Z,100.00
2023-11-15T02:19:01.362Z,100.00
2023-11-15T02:21:28.005Z,100.00
2023-11-15T02:23:56.712Z,100.00
2023-11-15T02:26:23.953Z,100.00
2023-11-15T02:28:50.588Z,99.77
2023-11-15T02:31:17.263Z,99.73
2023-11-15T02:33:43.931Z,99.42
2023-11-15T02:36:10.657Z,99.46
2023-11-15T02:38:37.322Z,100.00
2023-11-15T02:41:05.448Z,100.00
2023-11-15T02:43:32.163Z,100.00
2023-11-15T02:45:58.950Z,100.00
2023-11-15T02:48:25.772Z,100.00
2023-11-15T02:50:52.528Z,99.90
2023-11-15T02:53:22.376Z,99.37
2023-11-15T02:55:49.085Z,98.57
2023-11-15T03:01:08.779Z,97.52
2023-11-15T03:03:38.169Z,98.56
2023-11-15T03:06:06.148Z,98.42
2023-11-15T03:08:33.418Z,98.14
2023-11-15T03:11:00.555Z,98.89
2023-11-15T03:13:28.630Z,100.00
2023-11-15T03:15:58.784Z,100.00
2023-11-15T03:18:25.479Z,99.65
2023-11-15T03:20:52.248Z,98.49
2023-11-15T03:23:18.929Z,98.22
2023-11-15T03:25:45.525Z,98.08
2023-11-15T03:28:12.121Z,98.33
2023-11-15T03:30:40.094Z,98.58
2023-11-15T03:33:06.829Z,99.61
2023-11-15T03:35:33.499Z,99.76
2023-11-15T03:43:42.350Z,98.32
2023-11-15T03:46:10.423Z,98.62
2023-11-15T03:48:37.082Z,97.91
2023-11-15T03:51:04.493Z,98.70
2023-11-15T03:53:31.164Z,97.43
2023-11-15T03:55:57.759Z,98.21
2023-11-15T03:58:26.896Z,98.49
2023-11-15T04:00:56.490Z,98.78
2023-11-15T04:06:14.847Z,96.64
2023-11-15T04:08:41.499Z,96.47
2023-11-15T04:11:08.242Z,95.17
2023-11-15T04:13:35.859Z,96.72
2023-11-15T04:16:02.553Z,97.69
2023-11-15T04:18:30.671Z,96.05
2023-11-15T04:20:57.479Z,97.27
2023-11-15T04:23:25.287Z,97.35
2023-11-15T04:25:51.933Z,98.11
2023-11-15T04:28:18.814Z,96.21
2023-11-15T04:30:45.405Z,97.04
2023-11-15T04:33:13.677Z,94.53
2023-11-15T04:35:41.895Z,94.50
2023-11-15T04:38:08.629Z,94.46
2023-11-15T04:40:35.221Z,92.92
2023-11-15T04:51:36.517Z,89.86
2023-11-15T04:54:03.231Z,89.65
2023-11-15T04:56:30.823Z,89.81
2023-11-15T04:58:57.480Z,90.88
2023-11-15T05:01:24.164Z,90.79
2023-11-15T05:09:34.997Z,90.02
2023-11-15T05:12:01.602Z,89.55
2023-11-15T05:14:28.260Z,88.94
2023-11-15T05:16:54.862Z,89.74
2023-11-15T05:19:21.559Z,91.86
2023-11-15T05:21:49.561Z,92.36
2023-11-15T05:24:16.183Z,91.96
2023-11-15T05:26:42.894Z,93.12
2023-11-15T05:29:09.532Z,93.62
2023-11-15T05:31:36.137Z,95.59
2023-11-15T05:34:04.918Z,94.44
2023-11-15T05:36:31.653Z,94.88
2023-11-15T05:38:59.641Z,94.38
2023-11-15T05:41:29.200Z,94.63
2023-11-15T05:43:56.482Z,93.42
2023-11-15T05:46:23.128Z,93.72
2023-11-15T05:48:49.751Z,93.71
2023-11-15T05:51:16.824Z,93.94
2023-11-15T05:53:43.549Z,93.06
2023-11-15T05:56:13.504Z,93.41
2023-11-15T06:01:58.257Z,92.77
2023-11-15T06:04:28.014Z,92.35
2023-11-15T06:06:54.659Z,92.45
2023-11-15T06:09:21.930Z,92.26
2023-11-15T06:11:49.974Z,91.22
2023-11-15T06:14:18.713Z,92.13
2023-11-15T06:16:45.352Z,90.91
2023-11-15T06:19:12.049Z,91.30
2023-11-15T06:21:43.080Z,90.96
2023-11-15T06:24:09.862Z,91.09
2023-11-15T06:26:36.642Z,91.87
2023-11-15T06:29:07.966Z,91.25
2023-11-15T06:31:34.960Z,89.86
2023-11-15T06:34:01.605Z,90.02
2023-11-15T06:36:28.245Z,89.83
2023-11-15T06:38:54.947Z,90.80
2023-11-15T06:41:21.557Z,90.43
2023-11-15T06:43:48.163Z,89.82
2023-11-15T06:46:18.753Z,90.79
2023-11-15T06:48:45.503Z,89.71
2023-11-15T06:51:12.232Z,90.07
2023-11-15T06:53:38.903Z,89.13
2023-11-15T06:56:05.903Z,88.97
2023-11-15T06:58:32.479Z,88.95
2023-11-15T07:00:59.156Z,89.61
2023-11-15T07:03:27.387Z,88.92
2023-11-15T07:05:54.064Z,89.31
2023-11-15T07:08:20.752Z,90.26
2023-11-15T07:10:47.372Z,90.33
2023-11-15T07:13:13.977Z,91.01
2023-11-15T07:15:40.708Z,91.27
2023-11-15T07:18:07.413Z,90.39
2023-11-15T07:20:35.419Z,90.94
2023-11-15T07:28:44.076Z,91.93
2023-11-15T07:31:12.399Z,92.43
2023-11-15T07:33:39.118Z,91.59
2023-11-15T07:36:08.674Z,92.06
2023-11-15T07:38:35.470Z,92.36
2023-11-15T07:41:02.282Z,90.99
2023-11-15T07:43:28.939Z,91.10
2023-11-15T07:45:55.542Z,91.96
2023-11-15T07:48:22.262Z,91.03
2023-11-15T07:50:52.869Z,90.65
2023-11-15T07:53:20.941Z,90.32
2023-11-15T07:55:47.535Z,90.47
2023-11-15T07:58:14.144Z,89.86
2023-11-15T08:00:40.830Z,89.38
2023-11-15T08:03:08.047Z,89.35
2023-11-15T08:05:34.768Z,88.30
2023-11-15T08:08:01.399Z,88.21
2023-11-15T08:10:29.456Z,88.25
2023-11-15T08:12:56.089Z,88.51
2023-11-15T08:15:22.703Z,88.52
2023-11-15T08:17:49.478Z,87.67
2023-11-15T08:20:16.354Z,87.73
2023-11-15T08:22:43.153Z,87.59
2023-11-15T08:25:10.943Z,87.65
2023-11-15T08:27:40.157Z,88.50
2023-11-15T08:30:09.986Z,88.59
2023-11-15T08:38:19.204Z,88.21
2023-11-15T08:40:47.106Z,88.12
2023-11-15T08:43:16.615Z,87.83
2023-11-15T08:45:44.415Z,87.24
2023-11-15T08:48:11.321Z,87.02
2023-11-15T08:50:40.701Z,87.02
2023-11-15T08:53:08.812Z,86.39
2023-11-15T09:01:22.573Z,85.12
2023-11-15T09:03:49.540Z,84.78
2023-11-15T09:06:16.604Z,85.04
2023-11-15T09:08:44.007Z,87.57
2023-11-15T09:11:13.138Z,85.77
2023-11-15T09:13:41.389Z,85.25
2023-11-15T09:16:12.172Z,85.28
2023-11-15T09:18:39.845Z,86.09
2023-11-15T09:21:07.798Z,83.49
2023-11-15T09:23:34.905Z,84.29
2023-11-15T09:26:01.702Z,85.32
2023-11-15T09:28:28.410Z,82.21
2023-11-15T09:36:39.514Z,85.38
2023-11-15T09:39:06.893Z,84.67
2023-11-15T09:41:33.686Z,83.19
2023-11-15T09:44:04.198Z,84.46
2023-11-15T09:46:33.099Z,84.63
2023-11-15T09:49:05.248Z,85.43
2023-11-15T09:51:35.601Z,86.17
2023-11-15T09:54:12.315Z,85.06
2023-11-15T09:59:36.625Z,83.04
2023-11-15T10:02:05.653Z,83.41
2023-11-15T10:04:32.393Z,83.31
2023-11-15T10:07:06.540Z,84.78
2023-11-15T10:09:35.246Z,84.14
2023-11-15T10:12:02.756Z,84.99
2023-11-15T10:14:35.016Z,86.73
2023-11-15T10:17:02.579Z,83.55
2023-11-15T10:19:36.036Z,83.87
2023-11-15T10:22:05.395Z,84.76
2023-11-15T10:24:34.597Z,83.62
2023-11-15T10:27:07.129Z,83.87
2023-11-15T10:29:37.253Z,82.42
2023-11-15T10:32:05.009Z,82.00
2023-11-15T10:34:35.733Z,83.97
2023-11-15T10:37:05.499Z,82.55
2023-11-15T10:39:35.640Z,80.84
2023-11-15T10:42:03.977Z,84.03
2023-11-15T10:44:30.802Z,82.46
2023-11-15T10:47:06.013Z,82.62
2023-11-15T10:49:38.248Z,81.83
2023-11-15T10:52:08.282Z,83.81
2023-11-15T10:54:37.996Z,82.84
2023-11-15T10:57:08.597Z,81.28
2023-11-15T10:59:40.095Z,81.31
2023-11-15T11:02:07.890Z,80.37
2023-11-15T11:04:38.176Z,82.49
2023-11-15T11:07:10.516Z,83.41
2023-11-15T11:09:47.481Z,81.16
2023-11-15T11:15:25.787Z,82.25
2023-11-15T11:18:06.776Z,83.25
2023-11-15T11:20:38.117Z,83.62
2023-11-15T11:23:18.141Z,83.29
2023-11-15T11:25:45.927Z,82.55
2023-11-15T11:28:13.904Z,80.43
2023-11-15T11:30:41.277Z,80.83
2023-11-15T11:33:11.332Z,80.91
2023-11-15T11:35:42.226Z,80.33
2023-11-15T11:38:15.388Z,80.69
2023-11-15T11:40:44.495Z,80.83
2023-11-15T11:43:24.168Z,81.73
2023-11-15T11:45:51.786Z,81.73
2023-11-15T11:48:20.909Z,81.08
2023-11-15T11:51:06.242Z,81.92
2023-11-15T11:53:35.728Z,80.64
2023-11-15T11:59:09.050Z,80.96
2023-11-15T12:01:47.545Z,79.52
2023-11-15T12:04:15.009Z,79.08
2023-11-15T12:06:43.401Z,79.47
2023-11-15T12:09:11.336Z,80.28
2023-11-15T12:11:38.866Z,77.69
2023-11-15T12:14:06.176Z,79.69
2023-11-15T12:16:36.219Z,80.42
2023-11-15T12:19:05.985Z,80.22
2023-11-15T12:21:34.509Z,78.42
2023-11-15T12:24:04.450Z,77.70
2023-11-15T12:29:34.740Z,74.43
2023-11-15T12:32:02.885Z,72.87
2023-11-15T12:34:31.516Z,72.41
2023-11-15T12:36:59.992Z,69.88
2023-11-15T12:39:37.850Z,68.42
2023-11-15T12:44:56.066Z,68.18
2023-11-15T12:47:23.988Z,68.28
2023-11-15T12:49:53.644Z,69.68
2023-11-15T12:52:39.354Z,67.14
2023-11-15T12:55:12.796Z,68.73
2023-11-15T12:57:54.407Z,70.29
2023-11-15T13:00:31.815Z,71.69
2023-11-15T13:02:58.692Z,69.61
2023-11-15T13:05:28.913Z,67.37
2023-11-15T13:10:50.877Z,67.37
2023-11-15T13:13:18.382Z,67.82
2023-11-15T13:15:45.152Z,68.77
2023-11-15T13:18:11.875Z,68.80
2023-11-15T13:20:39.613Z,66.81
2023-11-15T13:23:06.801Z,67.08
2023-11-15T13:28:28.790Z,64.11
2023-11-15T13:30:57.060Z,64.60
2023-11-15T13:33:24.602Z,64.66
2023-11-15T13:35:51.548Z,65.25
2023-11-15T13:38:18.267Z,64.09
2023-11-15T13:40:48.416Z,64.98
2023-11-15T13:43:15.905Z,65.32
2023-11-15T13:45:45.512Z,65.48
2023-11-15T13:48:15.539Z,64.97
2023-11-15T13:50:45.050Z,65.36
2023-11-15T13:53:16.803Z,64.15
2023-11-15T13:55:43.591Z,65.15
2023-11-15T13:58:10.927Z,66.89
2023-11-15T14:00:38.555Z,68.26
2023-11-15T14:03:07.590Z,69.03
2023-11-15T14:05:36.602Z,71.02
2023-11-15T14:08:04.797Z,70.67
2023-11-15T14:10:35.020Z,73.03
2023-11-15T14:13:06.800Z,73.99
2023-11-15T14:15:34.867Z,73.38
2023-11-15T14:18:02.188Z,73.81
2023-11-15T14:20:35.403Z,73.46
2023-11-15T14:23:03.917Z,71.88
2023-11-15T14:25:33.212Z,70.37
2023-11-15T14:28:07.354Z,67.63
2023-11-15T14:30:34.940Z,66.25
2023-11-15T14:33:03.074Z,64.73
2023-11-15T14:35:32.293Z,66.36
2023-11-15T14:37:59.592Z,66.80
2023-11-15T14:40:27.626Z,65.00
2023-11-15T14:42:55.243Z,63.56
2023-11-15T14:45:23.400Z,63.17
2023-11-15T14:47:51.027Z,61.71
2023-11-15T14:50:22.708Z,59.51
2023-11-15T14:52:50.914Z,59.61
2023-11-15T14:55:19.024Z,60.31
2023-11-15T14:57:48.931Z,58.89
2023-11-15T15:00:18.237Z,58.89
2023-11-15T15:02:47.163Z,60.82
2023-11-15T15:05:15.129Z,61.48
2023-11-15T15:07:42.830Z,61.55
2023-11-15T15:10:15.081Z,62.50
2023-11-15T15:12:43.520Z,62.01
2023-11-15T15:15:11.934Z,63.07
2023-11-15T15:20:32.643Z,62.94
2023-11-15T15:22:59.715Z,62.85
2023-11-15T15:25:28.672Z,65.96
2023-11-15T15:27:56.510Z,67.17
2023-11-15T15:30:23.827Z,66.43
2023-11-15T15:32:51.548Z,68.41
2023-11-15T15:35:22.644Z,70.19
2023-11-15T15:37:50.403Z,70.69
2023-11-15T15:40:18.034Z,69.84
2023-11-15T15:45:39.160Z,68.30
2023-11-15T15:48:07.174Z,69.24
2023-11-15T15:50:35.939Z,67.77
2023-11-15T15:53:03.527Z,68.38
2023-11-15T15:55:30.932Z,69.37
2023-11-15T15:57:59.041Z,68.48
2023-11-15T16:00:26.458Z,69.98
2023-11-15T16:02:55.898Z,70.01
2023-11-15T16:05:23.886Z,70.52
2023-11-15T16:07:51.404Z,70.18
2023-11-15T16:13:12.758Z,71.05
2023-11-15T16:15:40.701Z,71.66
2023-11-15T16:18:08.451Z,72.64
2023-11-15T16:20:38.903Z,71.23
2023-11-15T16:23:06.385Z,71.62
2023-11-15T16:25:40.868Z,71.93
2023-11-15T16:28:08.875Z,72.04
2023-11-15T16:30:37.673Z,72.02
2023-11-15T16:33:05.323Z,71.77
2023-11-15T16:35:32.067Z,72.21
2023-11-15T16:37:59.735Z,71.93
2023-11-15T16:40:27.062Z,72.25
2023-11-15T16:42:54.994Z,73.77
2023-11-15T16:45:22.544Z,73.56
2023-11-15T16:47:51.504Z,72.54
2023-11-15T16:50:19.706Z,72.44
2023-11-15T16:52:47.007Z,71.80
2023-11-15T16:55:14.334Z,73.72
2023-11-15T16:57:41.663Z,73.77
2023-11-15T17:00:10.136Z,73.36
2023-11-15T17:02:36.874Z,74.34
2023-11-15T17:05:06.564Z,74.87
2023-11-15T17:07:34.430Z,75.59
2023-11-15T17:10:12.360Z,75.45
2023-11-15T17:12:39.705Z,75.08
2023-11-15T17:15:08.334Z,74.82
2023-11-15T17:17:35.647Z,75.27
2023-11-15T17:20:03.725Z,75.67
2023-11-15T17:22:32.978Z,76.17
2023-11-15T17:25:00.712Z,75.08
2023-11-15T17:36:07.966Z,74.96
2023-11-15T17:38:36.547Z,73.46
2023-11-15T17:41:04.713Z,73.41
2023-11-15T17:43:36.432Z,73.44
2023-11-15T17:46:04.536Z,73.13
2023-11-15T17:48:32.092Z,73.33
2023-11-15T17:51:00.188Z,73.43
2023-11-15T17:53:28.377Z,73.06
2023-11-15T17:55:56.881Z,73.95
2023-11-15T17:58:25.113Z,74.27
2023-11-15T18:00:52.393Z,74.40
2023-11-15T18:03:19.933Z,73.16
2023-11-15T18:05:47.574Z,72.75
2023-11-15T18:08:17.994Z,73.08
2023-11-15T18:10:45.423Z,73.76
2023-11-15T18:13:16.473Z,74.15
2023-11-15T18:15:43.186Z,73.95
2023-11-15T18:18:10.696Z,73.06
2023-11-15T18:20:38.501Z,73.01
2023-11-15T18:23:06.528Z,72.94
2023-11-15T18:25:34.302Z,74.17
2023-11-15T18:30:54.740Z,75.56
2023-11-15T18:33:22.323Z,75.65
2023-11-15T18:35:50.172Z,76.40
2023-11-15T18:38:17.417Z,76.06
2023-11-15T18:40:47.691Z,75.65
2023-11-15T18:43:16.494Z,75.24
2023-11-15T18:45:44.119Z,74.69
2023-11-15T18:48:13.033Z,74.78
2023-11-15T18:50:41.190Z,75.37
2023-11-15T18:53:08.558Z,75.77
2023-11-15T18:55:36.553Z,76.03
2023-11-15T18:58:04.113Z,76.96
2023-11-15T19:00:31.465Z,77.71
2023-11-15T19:03:02.462Z,78.49
2023-11-15T19:05:35.049Z,78.34
2023-11-15T19:08:02.351Z,78.72
2023-11-15T19:10:31.237Z,78.61
2023-11-15T19:12:59.372Z,79.24
2023-11-15T19:15:27.211Z,79.37
2023-11-15T19:17:55.480Z,79.13
2023-11-15T19:20:26.480Z,79.10
2023-11-15T19:22:55.204Z,78.90
2023-11-15T19:25:22.451Z,79.08
2023-11-15T19:27:50.912Z,78.87
2023-11-15T19:30:18.786Z,78.33
2023-11-15T19:32:46.395Z,78.74
2023-11-15T19:35:13.973Z,78.94
2023-11-15T19:37:41.474Z,78.73
2023-11-15T19:40:11.731Z,78.93
2023-11-15T19:45:31.185Z,78.93
2023-11-15T19:47:59.083Z,77.96
2023-11-15T19:50:31.625Z,78.33
2023-11-15T19:52:59.064Z,77.70
2023-11-15T19:55:31.745Z,77.53
2023-11-15T20:00:50.255Z,77.43
2023-11-15T20:03:17.794Z,77.88
2023-11-15T20:08:39.985Z,77.95
2023-11-15T20:11:10.245Z,77.40
2023-11-15T20:13:37.360Z,77.53
2023-11-15T20:16:06.404Z,77.68
2023-11-15T20:18:33.796Z,77.83
2023-11-15T20:21:00.721Z,77.90
2023-11-15T20:23:28.290Z,77.66
2023-11-15T20:25:55.541Z,76.96
2023-11-15T20:28:30.610Z,76.99
2023-11-15T20:31:03.659Z,76.83
2023-11-15T20:33:31.662Z,76.60
2023-11-15T20:36:02.817Z,77.04
2023-11-15T20:38:30.963Z,77.21
2023-11-15T20:41:00.874Z,77.98
2023-11-15T20:43:30.223Z,77.86
2023-11-15T20:46:10.178Z,77.13
2023-11-15T20:48:44.773Z,76.85
2023-11-15T20:51:12.313Z,76.58
2023-11-15T20:53:40.776Z,76.02
2023-11-15T20:56:08.834Z,75.87
2023-11-15T20:58:38.753Z,75.13
2023-11-15T21:01:06.291Z,75.00
2023-11-15T21:03:34.096Z,74.98
2023-11-15T21:06:02.036Z,75.10
2023-11-15T21:08:29.159Z,75.83
2023-11-15T21:10:59.425Z,75.25
2023-11-15T21:16:19.840Z,75.19
2023-11-15T21:21:37.633Z,75.63
2023-11-15T21:24:06.340Z,75.09
2023-11-15T21:26:33.009Z,74.93
2023-11-15T21:31:53.602Z,75.10
2023-11-15T21:34:20.897Z,75.07
2023-11-15T21:36:48.442Z,75.61
2023-11-15T21:39:16.291Z,75.41
2023-11-15T21:41:44.445Z,75.45
2023-11-15T21:44:11.689Z,75.63
2023-11-15T21:46:39.132Z,75.45
2023-11-15T21:49:08.261Z,75.31
2023-11-15T21:51:37.677Z,75.21
2023-11-15T21:54:07.824Z,75.22
2023-11-15T21:56:35.180Z,75.19
2023-11-15T21:59:02.637Z,75.03
2023-11-15T22:01:30.556Z,74.91
2023-11-15T22:03:58.217Z,74.89
2023-11-15T22:06:27.356Z,75.29
2023-11-15T22:08:54.645Z,75.30
2023-11-15T22:11:22.144Z,75.30
2023-11-15T22:19:33.903Z,75.07
2023-11-15T22:22:02.168Z,74.98
2023-11-15T22:24:31.836Z,74.63
2023-11-15T22:26:59.418Z,74.47
2023-11-15T22:29:26.721Z,74.55
2023-11-15T22:31:54.169Z,74.44
2023-11-15T22:34:25.376Z,74.37
2023-11-15T22:36:52.919Z,74.50
2023-11-15T22:39:21.662Z,74.74
2023-11-15T22:44:40.581Z,75.21
2023-11-15T22:47:08.230Z,75.22
2023-11-15T22:56:35.678Z,75.83
2023-11-15T22:59:03.133Z,75.95
2023-11-15T23:01:30.429Z,76.46
2023-11-15T23:09:43.460Z,77.52
2023-11-15T23:12:13.559Z,77.70
2023-11-15T23:14:41.293Z,77.69
2023-11-15T23:17:08.855Z,78.25
2023-11-15T23:19:39.253Z,78.53
2023-11-15T23:22:06.607Z,78.55
2023-11-15T23:24:37.694Z,78.40
2023-11-15T23:27:05.686Z,78.43
2023-11-15T23:29:34.480Z,78.25
2023-11-15T23:32:02.364Z,78.09
2023-11-15T23:34:29.789Z,78.35
2023-11-15T23:36:57.157Z,78.35
2023-11-15T23:39:28.775Z,78.28
2023-11-15T23:41:56.812Z,78.49
2023-11-15T23:44:27.499Z,78.58
2023-11-15T23:46:56.513Z,78.56
2023-11-15T23:49:24.041Z,78.82
2023-11-15T23:57:33.125Z,79.60
